Time;durP1;ratioP1;P1;durP2;ratioP2;P2;SDS_P1;SDS_P2;PMS_P1;PMS_P2;Temp;Humidity;BMP_temperature;BMP_pressure;BME280_temperature;BME280_humidity;BME280_pressure;Samples;Min_cycle;Max_cycle;Signal;HPM_P1;HPM_P2
2023/01/08 00:01:21;;;;;;;10.75;1.77;;;9.60;99.90;;;;;;5035706;28;20120;-77
2023/01/08 00:03:47;;;;;;;9.88;1.70;;;9.60;99.90;;;;;;5038158;28;20043;-77
2023/01/08 00:06:15;;;;;;;9.15;1.60;;;9.60;99.90;;;;;;5035823;28;20076;-77
2023/01/08 00:08:41;;;;;;;5.47;1.70;;;9.60;99.90;;;;;;5033374;28;20056;-77
2023/01/08 00:11:07;;;;;;;6.30;1.90;;;9.60;99.90;;;;;;5036287;28;20081;-77
2023/01/08 00:13:33;;;;;;;7.88;2.35;;;9.60;99.90;;;;;;5041493;28;20486;-78
2023/01/08 00:16:15;;;;;;;5.97;1.95;;;9.60;99.90;;;;;;5039214;28;20028;-78
2023/01/08 00:18:41;;;;;;;7.22;2.15;;;9.60;99.90;;;;;;5041860;28;20112;-78
2023/01/08 00:21:07;;;;;;;8.68;2.25;;;9.60;99.90;;;;;;5040196;28;20112;-78
2023/01/08 00:23:33;;;;;;;13.30;2.50;;;9.60;99.90;;;;;;5042289;28;20177;-78
2023/01/08 00:26:03;;;;;;;11.18;2.38;;;9.60;99.90;;;;;;5042052;28;20461;-78
2023/01/08 00:28:30;;;;;;;11.88;2.15;;;9.70;99.90;;;;;;5027547;28;20028;-78
2023/01/08 00:30:55;;;;;;;12.88;2.25;;;9.70;99.90;;;;;;5041877;28;20048;-77
2023/01/08 00:33:21;;;;;;;9.07;2.60;;;9.70;99.90;;;;;;5027173;28;20025;-78
2023/01/08 00:35:47;;;;;;;16.63;2.50;;;9.70;99.90;;;;;;5039119;28;20044;-78
2023/01/08 00:38:12;;;;;;;8.23;2.30;;;9.70;99.90;;;;;;5041822;28;20106;-78
2023/01/08 00:40:39;;;;;;;15.35;3.33;;;9.70;99.90;;;;;;5040392;28;20328;-78
2023/01/08 00:43:05;;;;;;;14.20;3.15;;;9.80;99.90;;;;;;5041110;28;20017;-78
2023/01/08 00:45:31;;;;;;;13.05;3.00;;;9.80;99.90;;;;;;5040816;28;20028;-77
2023/01/08 00:47:57;;;;;;;13.90;2.70;;;9.80;99.90;;;;;;5040356;28;20020;-77
2023/01/08 00:50:23;;;;;;;17.08;3.20;;;9.80;99.90;;;;;;5040961;28;20032;-77
2023/01/08 00:52:49;;;;;;;13.60;2.60;;;9.80;99.90;;;;;;5025906;28;20055;-77
2023/01/08 00:55:14;;;;;;;14.68;2.80;;;9.80;99.90;;;;;;5041791;28;20033;-78
2023/01/08 00:57:40;;;;;;;16.80;3.22;;;9.90;99.90;;;;;;5025428;28;20064;-78
2023/01/08 01:00:08;;;;;;;13.50;2.53;;;9.90;99.90;;;;;;5040542;28;20441;-77
2023/01/08 01:02:35;;;;;;;17.20;2.85;;;9.90;99.90;;;;;;5025182;28;20037;-78
2023/01/08 01:05:01;;;;;;;15.65;3.10;;;9.80;99.90;;;;;;5040738;28;20071;-78
2023/01/08 01:07:26;;;;;;;15.02;2.60;;;9.80;99.90;;;;;;5040259;28;20036;-79
2023/01/08 01:09:52;;;;;;;15.48;2.70;;;9.90;99.90;;;;;;5039352;28;20101;-78
2023/01/08 01:12:18;;;;;;;16.20;2.80;;;9.90;99.90;;;;;;5039099;28;20029;-78
2023/01/08 01:14:43;;;;;;;16.02;2.83;;;9.80;99.90;;;;;;5038452;28;20104;-78
2023/01/08 01:17:10;;;;;;;9.55;2.67;;;9.80;99.90;;;;;;5028983;28;20040;-78
2023/01/08 01:19:36;;;;;;;15.48;2.78;;;9.90;99.90;;;;;;5034915;28;20104;-78
2023/01/08 01:22:02;;;;;;;13.13;3.08;;;9.90;99.90;;;;;;5030732;28;20108;-79
2023/01/08 01:24:27;;;;;;;8.15;3.28;;;9.80;99.90;;;;;;5038615;28;20035;-78
2023/01/08 01:26:55;;;;;;;14.82;3.10;;;9.80;99.90;;;;;;5039330;28;20032;-78
2023/01/08 01:29:22;;;;;;;14.88;3.15;;;9.70;99.90;;;;;;5025965;28;20029;-78
2023/01/08 01:31:47;;;;;;;11.75;2.80;;;9.70;99.90;;;;;;5039473;28;20872;-77
2023/01/08 01:34:13;;;;;;;13.85;3.22;;;9.60;99.90;;;;;;5040781;28;20025;-78
2023/01/08 01:36:38;;;;;;;12.15;2.67;;;9.60;99.90;;;;;;5040741;28;20115;-78
2023/01/08 01:39:04;;;;;;;10.77;3.03;;;9.60;99.90;;;;;;5035478;28;20028;-78
2023/01/08 01:41:30;;;;;;;10.63;3.15;;;9.60;99.90;;;;;;5041391;28;20109;-77
2023/01/08 01:43:58;;;;;;;9.88;2.28;;;9.50;99.90;;;;;;5035401;28;20382;-77
2023/01/08 01:46:36;;;;;;;11.65;2.63;;;9.50;99.90;;;;;;5038737;28;20048;-78
2023/01/08 01:49:08;;;;;;;7.30;2.28;;;9.50;99.90;;;;;;5039009;28;20106;-77
2023/01/08 01:51:37;;;;;;;12.43;2.00;;;9.50;99.90;;;;;;5039776;28;20024;-78
2023/01/08 01:54:06;;;;;;;9.80;1.80;;;9.40;99.90;;;;;;5041023;28;20075;-78
2023/01/08 01:56:32;;;;;;;6.13;1.98;;;9.40;99.90;;;;;;5038842;28;20040;-78
2023/01/08 01:58:58;;;;;;;10.57;2.15;;;9.30;99.90;;;;;;5038757;28;20476;-78
2023/01/08 02:01:24;;;;;;;7.45;1.95;;;9.40;99.90;;;;;;5032778;28;20026;-77
2023/01/08 02:03:50;;;;;;;9.85;2.20;;;9.30;99.90;;;;;;5031572;28;20056;-78
2023/01/08 02:06:24;;;;;;;6.70;1.85;;;9.30;99.90;;;;;;5039477;28;20133;-78
2023/01/08 02:09:12;;;;;;;8.63;1.85;;;9.20;99.90;;;;;;5040615;28;20032;-78
2023/01/08 02:12:16;;;;;;;5.55;1.75;;;9.20;99.90;;;;;;5028678;28;20029;-78
2023/01/08 02:15:07;;;;;;;7.35;1.90;;;9.20;99.90;;;;;;5028947;28;20025;-78
2023/01/08 02:18:07;;;;;;;9.75;2.13;;;9.20;99.90;;;;;;5023836;28;20191;-78
2023/01/08 02:20:45;;;;;;;9.60;2.10;;;9.10;99.90;;;;;;5019910;28;20378;-78
2023/01/08 02:23:43;;;;;;;8.52;2.40;;;9.10;99.90;;;;;;5025340;28;20048;-77
2023/01/08 02:26:25;;;;;;;14.60;2.47;;;9.10;99.90;;;;;;5039738;28;20021;-80
2023/01/08 02:29:07;;;;;;;8.70;2.30;;;9.10;99.90;;;;;;5040295;28;20363;-77
2023/01/08 02:31:35;;;;;;;8.43;2.00;;;9.10;99.90;;;;;;5038444;28;20025;-77
2023/01/08 02:34:01;;;;;;;10.85;2.35;;;9.10;99.90;;;;;;5033363;28;20025;-78
2023/01/08 02:36:35;;;;;;;10.68;2.83;;;9.10;99.90;;;;;;5039610;28;20382;-78
2023/01/08 02:39:24;;;;;;;12.82;2.40;;;9.10;99.90;;;;;;5038923;28;20032;-77
2023/01/08 02:42:14;;;;;;;10.15;2.50;;;9.10;99.90;;;;;;5037285;28;20139;-78
2023/01/08 02:45:22;;;;;;;14.30;2.25;;;9.10;99.90;;;;;;5040288;28;20037;-77
2023/01/08 02:48:08;;;;;;;7.03;1.80;;;9.10;99.90;;;;;;4940950;28;20039;-78
2023/01/08 02:50:39;;;;;;;10.50;2.00;;;9.10;99.90;;;;;;4938717;29;20020;-79
2023/01/08 02:53:13;;;;;;;7.93;1.52;;;9.10;99.90;;;;;;4938683;29;20480;-78
2023/01/08 02:55:41;;;;;;;10.45;1.70;;;9.10;99.90;;;;;;4926853;29;20635;-78
2023/01/08 02:58:07;;;;;;;13.27;2.20;;;9.10;99.90;;;;;;4938695;29;20102;-78
2023/01/08 03:00:34;;;;;;;14.35;1.88;;;9.20;99.90;;;;;;4938644;28;20049;-78
2023/01/08 03:03:15;;;;;;;9.23;1.80;;;9.20;99.90;;;;;;4937968;28;20416;-78
2023/01/08 03:05:47;;;;;;;14.23;1.70;;;9.20;99.90;;;;;;4932397;29;20047;-77
2023/01/08 03:08:13;;;;;;;9.93;1.60;;;9.20;99.90;;;;;;4937258;28;20039;-77
2023/01/08 03:10:44;;;;;;;14.77;2.00;;;9.20;99.90;;;;;;4939158;28;20519;-77
2023/01/08 03:13:48;;;;;;;9.90;1.38;;;9.20;99.90;;;;;;4933621;29;20040;-77
2023/01/08 03:16:26;;;;;;;11.93;1.70;;;9.20;99.90;;;;;;4916271;29;20051;-77
2023/01/08 03:19:01;;;;;;;11.48;2.00;;;9.10;99.90;;;;;;4915063;29;20075;-77
2023/01/08 03:21:27;;;;;;;10.77;1.75;;;9.10;99.90;;;;;;4924448;29;20031;-77
2023/01/08 03:23:53;;;;;;;10.95;1.70;;;9.10;99.90;;;;;;4929698;28;20067;-78
2023/01/08 03:26:25;;;;;;;8.63;1.52;;;9.10;99.90;;;;;;4986242;28;20049;-77
2023/01/08 03:28:55;;;;;;;12.57;1.85;;;9.10;99.90;;;;;;4988595;28;20026;-77
2023/01/08 03:31:23;;;;;;;10.63;1.70;;;9.00;99.90;;;;;;4993547;28;20026;-77
2023/01/08 03:33:50;;;;;;;14.32;2.05;;;9.10;99.90;;;;;;4997612;28;20038;-78
2023/01/08 03:36:21;;;;;;;9.68;1.73;;;9.00;99.90;;;;;;5001179;28;20033;-77
2023/01/08 03:39:00;;;;;;;10.82;1.77;;;9.00;99.90;;;;;;4982272;28;20050;-77
2023/01/08 03:41:30;;;;;;;12.88;2.20;;;9.00;99.90;;;;;;4986155;28;20392;-78
2023/01/08 03:43:56;;;;;;;15.25;1.70;;;9.00;99.90;;;;;;4992753;28;20042;-77
2023/01/08 03:46:31;;;;;;;9.13;1.60;;;8.90;99.90;;;;;;4980049;28;20042;-77
2023/01/08 03:48:58;;;;;;;9.98;1.83;;;8.90;99.90;;;;;;4986939;28;20026;-77
2023/01/08 03:51:24;;;;;;;11.85;1.95;;;8.90;99.90;;;;;;5001197;28;20025;-78
2023/01/08 03:53:53;;;;;;;13.43;1.98;;;8.80;99.90;;;;;;5032323;28;20037;-78
2023/01/08 03:56:19;;;;;;;12.68;2.50;;;8.80;99.90;;;;;;5030602;28;20418;-77
2023/01/08 03:58:45;;;;;;;16.45;2.40;;;8.70;99.90;;;;;;5034568;28;20372;-77
2023/01/08 04:01:10;;;;;;;14.98;2.10;;;8.70;99.90;;;;;;5014901;28;20033;-78
2023/01/08 04:03:36;;;;;;;18.67;2.70;;;8.70;99.90;;;;;;5041125;28;20036;-80
2023/01/08 04:06:01;;;;;;;16.00;2.25;;;8.60;99.90;;;;;;5043155;28;20651;-78
2023/01/08 04:08:27;;;;;;;14.57;1.88;;;8.60;99.90;;;;;;5030171;28;20519;-78
2023/01/08 04:10:53;;;;;;;9.73;1.60;;;8.60;99.90;;;;;;5019762;28;20120;-77
2023/01/08 04:13:18;;;;;;;15.38;2.15;;;8.60;99.90;;;;;;5035426;28;20080;-77
2023/01/08 04:15:50;;;;;;;11.10;2.13;;;8.60;99.90;;;;;;5041912;28;20455;-77
2023/01/08 04:18:17;;;;;;;13.38;1.85;;;8.60;99.90;;;;;;5032444;28;20115;-78
2023/01/08 04:20:48;;;;;;;13.77;1.83;;;8.60;99.90;;;;;;5018592;28;20053;-79
2023/01/08 04:23:15;;;;;;;10.68;2.13;;;8.60;99.90;;;;;;5033627;28;20364;-78
2023/01/08 04:25:40;;;;;;;12.88;1.70;;;8.60;99.90;;;;;;5041637;28;20167;-78
2023/01/08 04:28:06;;;;;;;10.48;1.73;;;8.60;99.90;;;;;;5033621;28;20033;-78
2023/01/08 04:30:32;;;;;;;9.75;1.75;;;8.50;99.90;;;;;;5036647;28;20369;-78
2023/01/08 04:32:57;;;;;;;7.25;1.50;;;8.60;99.90;;;;;;5030922;28;20230;-78
2023/01/08 04:35:23;;;;;;;10.55;1.70;;;8.50;99.90;;;;;;5040111;28;20032;-78
2023/01/08 04:37:48;;;;;;;10.85;1.70;;;8.50;99.90;;;;;;5042777;28;20581;-79
2023/01/08 04:40:14;;;;;;;6.93;1.52;;;8.50;99.90;;;;;;5021899;28;20021;-78
2023/01/08 04:42:40;;;;;;;9.07;1.75;;;8.50;99.90;;;;;;5042778;28;20040;-79
2023/01/08 04:45:06;;;;;;;8.45;2.05;;;8.50;99.90;;;;;;5037853;28;20026;-78
2023/01/08 04:47:32;;;;;;;9.95;2.13;;;8.50;99.90;;;;;;5041233;28;20027;-78
2023/01/08 04:49:57;;;;;;;11.52;1.95;;;8.50;99.90;;;;;;5034181;28;20357;-77
2023/01/08 04:52:23;;;;;;;13.90;2.03;;;8.40;99.90;;;;;;5039701;28;20045;-77
2023/01/08 04:54:49;;;;;;;8.60;1.98;;;8.40;99.90;;;;;;5041653;28;20048;-77
2023/01/08 04:57:14;;;;;;;8.98;2.63;;;8.40;99.90;;;;;;5042248;28;20076;-78
2023/01/08 04:59:40;;;;;;;10.10;2.15;;;8.40;99.90;;;;;;5040193;28;20040;-78
2023/01/08 05:02:05;;;;;;;9.20;2.13;;;8.40;99.90;;;;;;5042383;28;20036;-78
2023/01/08 05:04:31;;;;;;;11.60;2.53;;;8.40;99.90;;;;;;5042631;28;20585;-78
2023/01/08 05:06:57;;;;;;;11.55;2.40;;;8.40;99.90;;;;;;5038393;28;20525;-78
2023/01/08 05:09:22;;;;;;;12.23;2.40;;;8.40;99.90;;;;;;5041979;28;20037;-77
2023/01/08 05:11:48;;;;;;;14.43;2.67;;;8.40;99.90;;;;;;5020643;28;20029;-79
2023/01/08 05:14:13;;;;;;;8.90;2.25;;;8.40;99.90;;;;;;5041785;28;20493;-78
2023/01/08 05:16:39;;;;;;;16.45;2.90;;;8.40;99.90;;;;;;5039974;28;20032;-78
2023/01/08 05:19:05;;;;;;;15.40;2.38;;;8.30;99.90;;;;;;5028820;28;20024;-79
2023/01/08 05:21:30;;;;;;;13.27;2.28;;;8.40;99.90;;;;;;5041822;28;20033;-79
2023/01/08 05:23:56;;;;;;;13.32;2.50;;;8.30;99.90;;;;;;5040266;28;20079;-79
2023/01/08 05:26:21;;;;;;;13.65;2.47;;;8.30;99.90;;;;;;5041444;28;20021;-78
2023/01/08 05:28:47;;;;;;;15.80;3.40;;;8.30;99.90;;;;;;5041597;28;20039;-78
2023/01/08 05:31:14;;;;;;;10.60;2.60;;;8.30;99.90;;;;;;5023478;28;20029;-78
2023/01/08 05:33:39;;;;;;;11.10;2.58;;;8.30;99.90;;;;;;5040631;28;20025;-78
2023/01/08 05:36:07;;;;;;;11.93;2.55;;;8.30;99.90;;;;;;5013708;28;20091;-77
2023/01/08 05:38:33;;;;;;;12.63;2.50;;;8.30;99.90;;;;;;5036341;28;20110;-77
2023/01/08 05:40:59;;;;;;;14.02;2.40;;;8.30;99.90;;;;;;5040701;28;20071;-77
2023/01/08 05:43:25;;;;;;;12.90;2.30;;;8.30;99.90;;;;;;5040829;28;20030;-77
2023/01/08 05:45:51;;;;;;;17.65;2.72;;;8.30;99.90;;;;;;5040782;28;20024;-77
2023/01/08 05:48:16;;;;;;;17.20;2.60;;;8.40;99.90;;;;;;5041146;28;20548;-77
2023/01/08 05:50:42;;;;;;;11.77;2.35;;;8.40;99.90;;;;;;5039076;28;20016;-77
2023/01/08 05:53:08;;;;;;;14.38;2.30;;;8.40;99.90;;;;;;5035658;28;20073;-78
2023/01/08 05:55:34;;;;;;;14.40;2.47;;;8.40;99.90;;;;;;5034934;28;20044;-77
2023/01/08 05:58:04;;;;;;;13.65;2.30;;;8.40;99.90;;;;;;5040140;28;20064;-77
2023/01/08 06:00:31;;;;;;;17.70;2.70;;;8.40;99.90;;;;;;5023339;28;20024;-77
2023/01/08 06:02:57;;;;;;;11.80;2.30;;;8.40;99.90;;;;;;5023116;28;20035;-79
2023/01/08 06:05:23;;;;;;;16.15;2.67;;;8.40;99.90;;;;;;5040639;28;20021;-78
2023/01/08 06:07:48;;;;;;;10.73;2.38;;;8.40;99.90;;;;;;5040722;28;20134;-78
2023/01/08 06:10:14;;;;;;;15.52;2.65;;;8.30;99.90;;;;;;5039043;28;20142;-78
2023/01/08 06:12:40;;;;;;;14.88;2.70;;;8.30;99.90;;;;;;5041531;28;20048;-78
2023/01/08 06:15:06;;;;;;;11.32;2.35;;;8.30;99.90;;;;;;5038651;28;20031;-77
2023/01/08 06:17:33;;;;;;;10.80;2.40;;;8.20;99.90;;;;;;5042504;28;20021;-78
2023/01/08 06:19:58;;;;;;;11.52;2.40;;;8.20;99.90;;;;;;5041636;28;20036;-78
2023/01/08 06:22:24;;;;;;;16.02;2.75;;;8.20;99.90;;;;;;5040571;28;20025;-78
2023/01/08 06:24:50;;;;;;;9.43;2.70;;;8.20;99.90;;;;;;5022424;28;20108;-78
2023/01/08 06:27:15;;;;;;;11.18;2.70;;;8.10;99.90;;;;;;5040784;28;20021;-78
2023/01/08 06:29:41;;;;;;;12.35;2.70;;;8.10;99.90;;;;;;5031292;28;20030;-78
2023/01/08 06:32:06;;;;;;;14.55;2.80;;;8.10;99.90;;;;;;5036768;28;20053;-78
2023/01/08 06:34:32;;;;;;;17.30;2.60;;;8.10;99.90;;;;;;5040565;28;20099;-78
2023/01/08 06:36:57;;;;;;;13.10;2.50;;;8.10;99.90;;;;;;5037925;28;20525;-78
2023/01/08 06:39:23;;;;;;;13.23;2.53;;;8.00;99.90;;;;;;5027024;28;20033;-77
2023/01/08 06:41:49;;;;;;;11.65;2.55;;;8.00;99.90;;;;;;5040090;28;20048;-77
2023/01/08 06:44:14;;;;;;;11.77;2.58;;;8.00;99.90;;;;;;5040476;28;20399;-77
2023/01/08 06:46:40;;;;;;;12.52;2.40;;;8.00;99.90;;;;;;5042238;28;20013;-78
2023/01/08 06:49:06;;;;;;;13.02;3.13;;;8.00;99.90;;;;;;5044098;28;20481;-79
2023/01/08 06:51:32;;;;;;;16.65;2.60;;;8.00;99.90;;;;;;5040221;28;20033;-80
2023/01/08 06:53:57;;;;;;;11.88;2.17;;;8.00;99.90;;;;;;5044771;28;20029;-78
2023/01/08 06:56:23;;;;;;;16.48;2.92;;;7.90;99.90;;;;;;5031976;28;20104;-78
2023/01/08 06:58:49;;;;;;;10.45;2.55;;;7.90;99.90;;;;;;5044181;28;20025;-77
2023/01/08 07:01:15;;;;;;;15.15;2.67;;;7.90;99.90;;;;;;5044617;28;20037;-78
2023/01/08 07:03:41;;;;;;;14.27;2.50;;;7.90;99.90;;;;;;5041131;28;20025;-78
2023/01/08 07:06:12;;;;;;;12.02;2.25;;;7.90;99.90;;;;;;5043411;28;20033;-78
2023/01/08 07:08:37;;;;;;;9.82;2.13;;;7.80;99.90;;;;;;5027501;28;20028;-78
2023/01/08 07:11:03;;;;;;;10.25;2.17;;;7.80;99.90;;;;;;5044008;28;20020;-77
2023/01/08 07:13:29;;;;;;;10.38;2.05;;;7.80;99.90;;;;;;5040791;28;20025;-77
2023/01/08 07:15:55;;;;;;;12.55;2.22;;;7.70;99.90;;;;;;5045208;28;20036;-77
2023/01/08 07:18:20;;;;;;;13.75;2.55;;;7.70;99.90;;;;;;5043187;28;20025;-77
2023/01/08 07:20:49;;;;;;;15.23;2.35;;;7.70;99.90;;;;;;5043054;28;20025;-77
2023/01/08 07:23:14;;;;;;;16.83;2.25;;;7.70;99.90;;;;;;5039895;28;20044;-78
2023/01/08 07:25:40;;;;;;;8.77;1.90;;;7.70;99.90;;;;;;5041890;28;20044;-77
2023/01/08 07:28:09;;;;;;;18.40;2.65;;;7.70;99.90;;;;;;5042302;28;20025;-77
2023/01/08 07:30:35;;;;;;;12.00;2.42;;;7.70;99.90;;;;;;5041645;28;20028;-78
2023/01/08 07:33:01;;;;;;;15.80;2.22;;;7.60;99.90;;;;;;5043559;28;20032;-79
2023/01/08 07:35:27;;;;;;;17.50;2.65;;;7.60;99.90;;;;;;5041107;28;20029;-79
2023/01/08 07:37:53;;;;;;;12.70;2.00;;;7.60;99.90;;;;;;5042780;28;20385;-79
2023/01/08 07:40:18;;;;;;;11.77;2.22;;;7.60;99.90;;;;;;5042363;28;20028;-79
2023/01/08 07:42:44;;;;;;;15.45;2.58;;;7.60;99.90;;;;;;5042048;28;20037;-78
2023/01/08 07:45:10;;;;;;;10.80;2.03;;;7.60;99.90;;;;;;5040715;28;20141;-79
2023/01/08 07:47:36;;;;;;;15.80;2.42;;;7.60;99.90;;;;;;5040618;28;20051;-79
2023/01/08 07:50:01;;;;;;;17.23;2.42;;;7.60;99.90;;;;;;5028656;28;20306;-78
2023/01/08 07:52:27;;;;;;;14.43;2.58;;;7.50;99.90;;;;;;5041991;28;20031;-78
2023/01/08 07:54:53;;;;;;;16.75;2.20;;;7.50;99.90;;;;;;5042067;28;20070;-78
2023/01/08 07:57:19;;;;;;;15.23;2.25;;;7.50;99.90;;;;;;5024182;28;20046;-78
2023/01/08 07:59:44;;;;;;;13.48;1.80;;;7.50;99.90;;;;;;5041503;28;20076;-78
2023/01/08 08:02:10;;;;;;;15.25;2.25;;;7.50;99.90;;;;;;5043770;28;20024;-78
2023/01/08 08:04:36;;;;;;;12.13;2.00;;;7.50;99.90;;;;;;5042174;28;20025;-79
2023/01/08 08:07:02;;;;;;;12.70;2.30;;;7.50;99.90;;;;;;5042231;28;20547;-78
2023/01/08 08:09:28;;;;;;;13.98;2.13;;;7.50;99.90;;;;;;5040175;28;20024;-78
2023/01/08 08:11:53;;;;;;;10.60;2.13;;;7.50;99.90;;;;;;5040088;28;20029;-77
2023/01/08 08:14:19;;;;;;;13.20;2.30;;;7.50;99.90;;;;;;5042350;28;20104;-78
2023/01/08 08:16:44;;;;;;;14.98;2.42;;;7.40;99.90;;;;;;5024659;28;20560;-78
2023/01/08 08:19:11;;;;;;;17.38;2.42;;;7.50;99.90;;;;;;5040097;28;20290;-78
2023/01/08 08:21:38;;;;;;;12.20;2.33;;;7.40;99.90;;;;;;5040163;28;20025;-77
2023/01/08 08:24:04;;;;;;;13.50;2.25;;;7.40;99.90;;;;;;5042532;28;20504;-77
2023/01/08 08:26:29;;;;;;;11.15;2.60;;;7.50;99.90;;;;;;5043403;28;20082;-77
2023/01/08 08:28:55;;;;;;;15.50;3.13;;;7.40;99.90;;;;;;5041474;28;20029;-77
2023/01/08 08:31:21;;;;;;;15.77;2.42;;;7.50;99.90;;;;;;5042944;28;20025;-77
2023/01/08 08:33:46;;;;;;;11.95;2.20;;;7.50;99.90;;;;;;5042141;28;20064;-77
2023/01/08 08:36:12;;;;;;;15.63;2.30;;;7.50;99.90;;;;;;5043148;28;20029;-78
2023/01/08 08:38:38;;;;;;;15.10;2.47;;;7.50;99.90;;;;;;5038947;28;20052;-77
2023/01/08 08:41:04;;;;;;;17.20;2.50;;;7.50;99.90;;;;;;5040943;28;20028;-77
2023/01/08 08:43:30;;;;;;;15.40;2.55;;;7.50;99.90;;;;;;5040619;28;20418;-77
2023/01/08 08:45:56;;;;;;;11.25;2.10;;;7.50;99.90;;;;;;5039971;28;20027;-78
2023/01/08 08:48:22;;;;;;;14.02;2.28;;;7.50;99.90;;;;;;5023095;28;20485;-78
2023/01/08 08:50:48;;;;;;;17.95;2.10;;;7.50;99.90;;;;;;5040957;28;20064;-77
2023/01/08 08:53:14;;;;;;;10.80;2.10;;;7.50;99.90;;;;;;5040775;28;20115;-77
2023/01/08 08:55:39;;;;;;;17.35;2.28;;;7.50;99.90;;;;;;5021808;28;20634;-78
2023/01/08 08:58:12;;;;;;;15.95;2.00;;;7.50;99.90;;;;;;5039669;28;20109;-77
2023/01/08 09:00:39;;;;;;;12.75;2.00;;;7.50;99.90;;;;;;5038233;28;20025;-77
2023/01/08 09:03:04;;;;;;;15.55;2.35;;;7.60;99.90;;;;;;5035736;28;20061;-77
2023/01/08 09:05:30;;;;;;;13.35;2.42;;;7.60;99.90;;;;;;5039930;28;20060;-78
2023/01/08 09:07:56;;;;;;;16.08;1.98;;;7.60;99.90;;;;;;5035794;28;20288;-78
2023/01/08 09:10:22;;;;;;;14.90;2.22;;;7.60;99.90;;;;;;5022497;28;20029;-78
2023/01/08 09:12:48;;;;;;;16.50;2.08;;;7.70;99.90;;;;;;5040155;28;20621;-78
2023/01/08 09:15:14;;;;;;;14.75;2.55;;;7.70;99.90;;;;;;5040385;28;20021;-79
2023/01/08 09:17:40;;;;;;;18.42;2.60;;;7.70;99.90;;;;;;5039437;28;20445;-78
2023/01/08 09:20:06;;;;;;;12.40;2.08;;;7.80;99.90;;;;;;5038885;28;20029;-78
2023/01/08 09:22:32;;;;;;;14.25;2.08;;;7.80;99.90;;;;;;5040148;28;20051;-78
2023/01/08 09:24:57;;;;;;;16.00;2.38;;;7.80;99.90;;;;;;5042026;28;20448;-78
2023/01/08 09:27:23;;;;;;;15.82;2.42;;;7.90;99.90;;;;;;5041709;28;20096;-78
2023/01/08 09:29:48;;;;;;;13.85;1.90;;;8.00;99.90;;;;;;5033244;28;20029;-79
2023/01/08 09:32:14;;;;;;;17.33;2.60;;;8.00;99.90;;;;;;5037220;28;20028;-79
2023/01/08 09:34:40;;;;;;;13.15;2.55;;;8.00;99.90;;;;;;5037732;28;20028;-79
2023/01/08 09:37:06;;;;;;;16.85;2.35;;;8.00;99.90;;;;;;5038823;28;20040;-78
2023/01/08 09:39:32;;;;;;;13.18;2.30;;;8.10;99.90;;;;;;5038731;28;20033;-78
2023/01/08 09:42:02;;;;;;;12.75;2.00;;;8.10;99.90;;;;;;5038934;28;20025;-78
2023/01/08 09:44:34;;;;;;;15.32;2.70;;;8.10;99.90;;;;;;5020755;28;20110;-78
2023/01/08 09:47:00;;;;;;;9.43;1.90;;;8.20;99.90;;;;;;5039647;28;20511;-78
2023/01/08 09:49:43;;;;;;;10.38;2.13;;;8.20;99.90;;;;;;5038781;28;20020;-78
2023/01/08 09:52:13;;;;;;;18.83;2.45;;;8.20;99.90;;;;;;5033990;28;20489;-78
2023/01/08 09:54:39;;;;;;;14.82;2.15;;;8.30;99.90;;;;;;5038496;28;20033;-78
2023/01/08 09:57:09;;;;;;;14.40;2.33;;;8.30;99.90;;;;;;5039769;28;20028;-78
2023/01/08 09:59:34;;;;;;;18.05;2.58;;;8.40;99.90;;;;;;5039695;28;20032;-78
2023/01/08 10:02:00;;;;;;;14.70;2.28;;;8.40;99.90;;;;;;5036829;28;20106;-78
2023/01/08 10:04:28;;;;;;;15.93;2.60;;;8.50;99.90;;;;;;5038976;28;20090;-78
2023/01/08 10:06:55;;;;;;;17.63;2.45;;;8.50;99.90;;;;;;5038340;28;20064;-78
2023/01/08 10:09:27;;;;;;;16.48;2.47;;;8.50;99.90;;;;;;5039069;28;20039;-78
2023/01/08 10:11:56;;;;;;;14.02;2.35;;;8.60;99.90;;;;;;5039135;28;20742;-78
2023/01/08 10:14:29;;;;;;;12.98;2.50;;;8.60;99.90;;;;;;5020031;28;20032;-78
2023/01/08 10:16:59;;;;;;;14.93;2.65;;;8.60;99.90;;;;;;5036930;28;20032;-78
2023/01/08 10:19:25;;;;;;;16.17;2.33;;;8.70;99.90;;;;;;5041825;28;20029;-78
2023/01/08 10:21:52;;;;;;;13.10;2.40;;;8.70;99.90;;;;;;5043318;28;20029;-79
2023/01/08 10:24:33;;;;;;;18.77;2.90;;;8.80;99.90;;;;;;5043766;28;20464;-78
2023/01/08 10:27:07;;;;;;;16.08;2.40;;;8.90;99.90;;;;;;5043425;28;20441;-78
2023/01/08 10:29:32;;;;;;;18.42;3.15;;;8.90;99.90;;;;;;5040407;28;20025;-79
2023/01/08 10:32:07;;;;;;;13.15;2.30;;;9.00;99.90;;;;;;5044967;28;20071;-78
2023/01/08 10:34:50;;;;;;;17.35;2.42;;;9.00;99.90;;;;;;5043325;28;20549;-78
2023/01/08 10:37:21;;;;;;;10.48;2.35;;;9.10;99.90;;;;;;5040281;28;20024;-78
2023/01/08 10:39:47;;;;;;;15.38;2.75;;;9.10;99.90;;;;;;5043275;28;20155;-78
2023/01/08 10:42:15;;;;;;;12.45;1.90;;;9.20;99.90;;;;;;5043639;28;20021;-78
2023/01/08 10:45:10;;;;;;;5.63;1.63;;;9.20;99.90;;;;;;5043925;28;20052;-78
2023/01/08 10:47:37;;;;;;;10.05;2.10;;;9.30;99.90;;;;;;5044516;28;20036;-78
2023/01/08 10:50:14;;;;;;;12.70;2.33;;;9.30;99.90;;;;;;5043651;28;20017;-78
2023/01/08 10:52:39;;;;;;;11.05;2.17;;;9.40;99.90;;;;;;5041552;28;20033;-78
2023/01/08 10:55:20;;;;;;;9.82;2.13;;;9.40;99.90;;;;;;5043083;28;20032;-78
2023/01/08 10:57:54;;;;;;;11.50;2.00;;;9.40;99.90;;;;;;5025831;28;20025;-78
2023/01/08 11:00:24;;;;;;;9.27;1.95;;;9.40;99.90;;;;;;5042322;28;20382;-77
2023/01/08 11:02:50;;;;;;;9.65;1.90;;;9.40;99.90;;;;;;5042110;28;20029;-78
2023/01/08 11:05:16;;;;;;;10.50;2.13;;;9.40;99.90;;;;;;5042619;28;20024;-78
2023/01/08 11:07:46;;;;;;;7.82;1.98;;;9.40;99.90;;;;;;5042172;28;20084;-77
2023/01/08 11:10:23;;;;;;;9.57;2.00;;;9.50;99.90;;;;;;5043710;28;20120;-78
2023/01/08 11:12:58;;;;;;;10.18;1.75;;;9.50;99.90;;;;;;5040214;28;20253;-78
2023/01/08 11:15:31;;;;;;;9.40;1.70;;;9.50;99.90;;;;;;5039852;28;20033;-78
2023/01/08 11:18:24;;;;;;;11.07;2.00;;;9.50;99.90;;;;;;5040361;28;20042;-78
2023/01/08 11:20:52;;;;;;;9.88;1.95;;;9.50;99.90;;;;;;5041812;28;20048;-78
2023/01/08 11:23:21;;;;;;;14.98;2.25;;;9.40;99.90;;;;;;5041591;28;20371;-78
2023/01/08 11:26:07;;;;;;;10.95;2.08;;;9.40;99.90;;;;;;5040157;28;20033;-78
2023/01/08 11:28:42;;;;;;;11.65;2.17;;;9.40;99.90;;;;;;5014413;28;20556;-78
2023/01/08 11:31:22;;;;;;;8.00;2.10;;;9.40;99.90;;;;;;5043317;28;20082;-78
2023/01/08 11:33:55;;;;;;;8.38;2.42;;;9.50;99.90;;;;;;5040829;28;20033;-78
2023/01/08 11:36:35;;;;;;;14.88;2.72;;;9.40;99.90;;;;;;5040102;28;20544;-78
2023/01/08 11:39:01;;;;;;;8.73;2.20;;;9.40;99.90;;;;;;5043631;28;20079;-77
2023/01/08 11:41:42;;;;;;;14.45;2.70;;;9.40;99.90;;;;;;5024862;28;20479;-77
2023/01/08 11:44:25;;;;;;;7.97;2.42;;;9.40;99.90;;;;;;5043515;28;20040;-77
2023/01/08 11:47:03;;;;;;;10.73;2.80;;;9.40;99.90;;;;;;5025566;28;20021;-76
2023/01/08 11:49:28;;;;;;;8.38;2.30;;;9.40;99.90;;;;;;5038587;28;20082;-76
2023/01/08 11:52:19;;;;;;;13.18;2.88;;;9.40;99.90;;;;;;5033175;28;20037;-75
2023/01/08 11:54:53;;;;;;;6.97;2.00;;;9.40;99.90;;;;;;5039173;28;20025;-76
2023/01/08 11:57:37;;;;;;;11.63;2.40;;;9.40;99.90;;;;;;5039773;28;20502;-76
2023/01/08 12:00:02;;;;;;;7.72;2.30;;;9.40;99.90;;;;;;5040008;28;20595;-76
2023/01/08 12:02:57;;;;;;;7.85;2.30;;;9.50;99.90;;;;;;5041742;28;20079;-76
2023/01/08 12:05:25;;;;;;;8.15;2.13;;;9.60;99.90;;;;;;5041222;28;20013;-76
2023/01/08 12:08:08;;;;;;;6.82;2.05;;;9.70;99.90;;;;;;5038749;28;20331;-76
2023/01/08 12:11:01;;;;;;;6.10;2.10;;;9.80;99.90;;;;;;5039807;28;20328;-76
2023/01/08 12:13:45;;;;;;;7.57;2.45;;;9.80;99.90;;;;;;5039118;28;20594;-76
2023/01/08 12:16:23;;;;;;;7.88;1.90;;;9.80;99.90;;;;;;5039902;28;20033;-77
2023/01/08 12:19:14;;;;;;;8.88;1.98;;;9.80;99.90;;;;;;5041088;28;20116;-76
2023/01/08 12:21:52;;;;;;;8.23;1.88;;;9.90;99.90;;;;;;5029170;28;20048;-76
2023/01/08 12:24:30;;;;;;;6.95;1.95;;;9.90;99.90;;;;;;5037715;28;20037;-76
2023/01/08 12:27:25;;;;;;;6.72;2.20;;;9.90;99.90;;;;;;5037334;28;20043;-77
2023/01/08 12:30:21;;;;;;;9.13;2.25;;;9.90;99.90;;;;;;5041908;28;20029;-77
2023/01/08 12:32:53;;;;;;;6.25;2.13;;;9.90;99.90;;;;;;5040744;28;20043;-77
2023/01/08 12:35:28;;;;;;;6.38;1.98;;;9.90;99.90;;;;;;5041023;28;20116;-77
2023/01/08 12:38:00;;;;;;;8.00;2.20;;;9.90;99.90;;;;;;5020157;28;20033;-77
2023/01/08 12:40:31;;;;;;;6.97;1.80;;;9.90;99.90;;;;;;5037856;28;20067;-78
2023/01/08 12:42:59;;;;;;;12.80;2.10;;;9.90;99.90;;;;;;5041311;28;20126;-77
2023/01/08 12:45:33;;;;;;;7.93;1.90;;;9.90;99.90;;;;;;5042463;28;20422;-77
2023/01/08 12:48:15;;;;;;;8.13;2.00;;;9.90;99.90;;;;;;5041022;28;20126;-78
2023/01/08 12:51:00;;;;;;;8.05;2.17;;;9.90;99.90;;;;;;5024984;28;20109;-78
2023/01/08 12:53:36;;;;;;;9.50;1.87;;;9.90;99.90;;;;;;5040072;28;20414;-78
2023/01/08 12:56:12;;;;;;;7.25;1.83;;;9.80;99.90;;;;;;5039327;28;20021;-78
2023/01/08 12:58:50;;;;;;;8.07;2.10;;;9.80;99.90;;;;;;5038041;28;20078;-78
2023/01/08 13:01:36;;;;;;;7.18;1.88;;;9.80;99.90;;;;;;5035021;28;20043;-78
2023/01/08 13:04:03;;;;;;;6.82;1.90;;;9.80;99.90;;;;;;5035952;28;20037;-78